sensor_id;sensor_type;location;lat;lon;timestamp;P1;durP1;ratioP1;P2;durP2;ratioP2
16460;SDS011;8341;42.048;24.650;2023-05-18T00:02:26;6.47;;;2.15;;
16460;SDS011;8341;42.048;24.650;2023-05-18T00:04:54;8.23;;;2.03;;
16460;SDS011;8341;42.048;24.650;2023-05-18T00:07:21;5.78;;;2.25;;
16460;SDS011;8341;42.048;24.650;2023-05-18T00:09:47;4.45;;;2.08;;
16460;SDS011;8341;42.048;24.650;2023-05-18T00:12:14;5.93;;;1.73;;
16460;SDS011;8341;42.048;24.650;2023-05-18T00:14:41;6.13;;;2.10;;
16460;SDS011;8341;42.048;24.650;2023-05-18T00:17:09;5.22;;;2.08;;
16460;SDS011;8341;42.048;24.650;2023-05-18T00:19:36;7.88;;;2.38;;
16460;SDS011;8341;42.048;24.650;2023-05-18T00:22:04;4.30;;;2.40;;
16460;SDS011;8341;42.048;24.650;2023-05-18T00:24:31;6.32;;;2.30;;
16460;SDS011;8341;42.048;24.650;2023-05-18T00:26:58;7.20;;;2.63;;
16460;SDS011;8341;42.048;24.650;2023-05-18T00:29:25;3.95;;;2.50;;
16460;SDS011;8341;42.048;24.650;2023-05-18T00:31:52;5.57;;;2.47;;
16460;SDS011;8341;42.048;24.650;2023-05-18T00:34:20;5.85;;;2.28;;
16460;SDS011;8341;42.048;24.650;2023-05-18T00:36:47;6.40;;;2.30;;
16460;SDS011;8341;42.048;24.650;2023-05-18T00:39:14;7.78;;;2.40;;
16460;SDS011;8341;42.048;24.650;2023-05-18T00:41:40;4.82;;;2.53;;
16460;SDS011;8341;42.048;24.650;2023-05-18T00:44:07;4.90;;;1.90;;
16460;SDS011;8341;42.048;24.650;2023-05-18T00:46:34;8.18;;;2.50;;
16460;SDS011;8341;42.048;24.650;2023-05-18T00:49:01;4.63;;;1.90;;
16460;SDS011;8341;42.048;24.650;2023-05-18T00:51:30;5.50;;;2.08;;
16460;SDS011;8341;42.048;24.650;2023-05-18T00:53:58;5.00;;;2.22;;
16460;SDS011;8341;42.048;24.650;2023-05-18T00:56:27;4.35;;;1.92;;
16460;SDS011;8341;42.048;24.650;2023-05-18T00:58:58;5.75;;;1.98;;
16460;SDS011;8341;42.048;24.650;2023-05-18T01:01:27;3.85;;;1.52;;
16460;SDS011;8341;42.048;24.650;2023-05-18T01:03:55;7.38;;;1.90;;
16460;SDS011;8341;42.048;24.650;2023-05-18T01:06:26;5.45;;;2.10;;
16460;SDS011;8341;42.048;24.650;2023-05-18T01:08:58;6.00;;;1.90;;
16460;SDS011;8341;42.048;24.650;2023-05-18T01:11:43;8.13;;;1.70;;
16460;SDS011;8341;42.048;24.650;2023-05-18T01:14:18;9.57;;;1.92;;
16460;SDS011;8341;42.048;24.650;2023-05-18T01:16:55;6.05;;;1.80;;
16460;SDS011;8341;42.048;24.650;2023-05-18T01:22:57;4.60;;;1.80;;
16460;SDS011;8341;42.048;24.650;2023-05-18T01:25:40;5.68;;;1.60;;
16460;SDS011;8341;42.048;24.650;2023-05-18T01:28:14;5.47;;;1.90;;
16460;SDS011;8341;42.048;24.650;2023-05-18T01:30:43;5.88;;;1.80;;
16460;SDS011;8341;42.048;24.650;2023-05-18T01:33:12;4.85;;;1.38;;
16460;SDS011;8341;42.048;24.650;2023-05-18T01:35:39;7.10;;;1.75;;
16460;SDS011;8341;42.048;24.650;2023-05-18T01:38:11;2.88;;;1.40;;
16460;SDS011;8341;42.048;24.650;2023-05-18T01:40:47;3.80;;;1.63;;
16460;SDS011;8341;42.048;24.650;2023-05-18T01:43:24;4.53;;;2.03;;
16460;SDS011;8341;42.048;24.650;2023-05-18T01:45:55;6.63;;;2.05;;
16460;SDS011;8341;42.048;24.650;2023-05-18T01:48:26;3.20;;;1.63;;
16460;SDS011;8341;42.048;24.650;2023-05-18T01:50:54;2.80;;;1.88;;
16460;SDS011;8341;42.048;24.650;2023-05-18T01:53:23;6.80;;;2.00;;
16460;SDS011;8341;42.048;24.650;2023-05-18T01:55:53;6.78;;;3.25;;
16460;SDS011;8341;42.048;24.650;2023-05-18T01:58:21;6.35;;;2.20;;
16460;SDS011;8341;42.048;24.650;2023-05-18T02:00:50;8.10;;;3.05;;
16460;SDS011;8341;42.048;24.650;2023-05-18T02:03:17;3.50;;;1.80;;
16460;SDS011;8341;42.048;24.650;2023-05-18T02:05:44;6.00;;;2.92;;
16460;SDS011;8341;42.048;24.650;2023-05-18T02:08:11;7.70;;;3.92;;
16460;SDS011;8341;42.048;24.650;2023-05-18T02:10:37;9.63;;;2.80;;
16460;SDS011;8341;42.048;24.650;2023-05-18T02:13:04;7.18;;;3.50;;
16460;SDS011;8341;42.048;24.650;2023-05-18T02:15:32;6.40;;;4.18;;
16460;SDS011;8341;42.048;24.650;2023-05-18T02:17:59;8.75;;;2.53;;
16460;SDS011;8341;42.048;24.650;2023-05-18T02:20:26;5.57;;;1.85;;
16460;SDS011;8341;42.048;24.650;2023-05-18T02:22:56;4.38;;;1.55;;
16460;SDS011;8341;42.048;24.650;2023-05-18T02:25:23;4.57;;;1.83;;
16460;SDS011;8341;42.048;24.650;2023-05-18T02:27:50;4.38;;;2.38;;
16460;SDS011;8341;42.048;24.650;2023-05-18T02:30:17;4.82;;;1.60;;
16460;SDS011;8341;42.048;24.650;2023-05-18T02:32:45;7.63;;;2.58;;
16460;SDS011;8341;42.048;24.650;2023-05-18T02:35:13;6.20;;;1.73;;
16460;SDS011;8341;42.048;24.650;2023-05-18T02:37:41;7.15;;;1.98;;
16460;SDS011;8341;42.048;24.650;2023-05-18T02:40:09;3.42;;;1.70;;
16460;SDS011;8341;42.048;24.650;2023-05-18T02:42:37;5.47;;;1.98;;
16460;SDS011;8341;42.048;24.650;2023-05-18T02:45:04;7.20;;;3.58;;
16460;SDS011;8341;42.048;24.650;2023-05-18T02:47:31;11.77;;;7.65;;
16460;SDS011;8341;42.048;24.650;2023-05-18T02:49:59;5.60;;;2.50;;
16460;SDS011;8341;42.048;24.650;2023-05-18T02:52:26;3.10;;;1.77;;
16460;SDS011;8341;42.048;24.650;2023-05-18T02:54:53;4.57;;;2.08;;
16460;SDS011;8341;42.048;24.650;2023-05-18T02:57:20;8.60;;;3.20;;
16460;SDS011;8341;42.048;24.650;2023-05-18T02:59:47;5.55;;;3.17;;
16460;SDS011;8341;42.048;24.650;2023-05-18T03:02:14;4.72;;;1.67;;
16460;SDS011;8341;42.048;24.650;2023-05-18T03:04:40;4.85;;;2.13;;
16460;SDS011;8341;42.048;24.650;2023-05-18T03:07:09;4.43;;;1.73;;
16460;SDS011;8341;42.048;24.650;2023-05-18T03:09:35;8.02;;;1.90;;
16460;SDS011;8341;42.048;24.650;2023-05-18T03:12:02;9.35;;;4.05;;
16460;SDS011;8341;42.048;24.650;2023-05-18T03:14:29;7.85;;;3.97;;
16460;SDS011;8341;42.048;24.650;2023-05-18T03:16:56;15.25;;;8.55;;
16460;SDS011;8341;42.048;24.650;2023-05-18T03:19:23;15.60;;;10.23;;
16460;SDS011;8341;42.048;24.650;2023-05-18T03:21:51;13.13;;;7.47;;
16460;SDS011;8341;42.048;24.650;2023-05-18T03:24:19;19.60;;;13.85;;
16460;SDS011;8341;42.048;24.650;2023-05-18T03:26:46;17.25;;;9.98;;
16460;SDS011;8341;42.048;24.650;2023-05-18T03:29:12;19.42;;;12.05;;
16460;SDS011;8341;42.048;24.650;2023-05-18T03:31:39;11.70;;;7.75;;
16460;SDS011;8341;42.048;24.650;2023-05-18T03:34:06;14.82;;;8.20;;
16460;SDS011;8341;42.048;24.650;2023-05-18T03:36:33;6.35;;;2.72;;
16460;SDS011;8341;42.048;24.650;2023-05-18T03:39:02;7.57;;;4.63;;
16460;SDS011;8341;42.048;24.650;2023-05-18T03:41:31;6.50;;;3.60;;
16460;SDS011;8341;42.048;24.650;2023-05-18T03:43:58;5.90;;;2.63;;
16460;SDS011;8341;42.048;24.650;2023-05-18T03:46:25;9.50;;;6.18;;
16460;SDS011;8341;42.048;24.650;2023-05-18T03:48:51;7.05;;;3.92;;
16460;SDS011;8341;42.048;24.650;2023-05-18T03:51:19;8.93;;;4.25;;
16460;SDS011;8341;42.048;24.650;2023-05-18T03:53:45;5.65;;;1.70;;
16460;SDS011;8341;42.048;24.650;2023-05-18T03:56:12;8.48;;;2.38;;
16460;SDS011;8341;42.048;24.650;2023-05-18T03:58:41;5.47;;;2.10;;
16460;SDS011;8341;42.048;24.650;2023-05-18T04:01:08;4.60;;;2.10;;
16460;SDS011;8341;42.048;24.650;2023-05-18T04:03:35;6.72;;;2.13;;
16460;SDS011;8341;42.048;24.650;2023-05-18T04:06:02;4.57;;;2.00;;
16460;SDS011;8341;42.048;24.650;2023-05-18T04:08:30;4.88;;;2.20;;
16460;SDS011;8341;42.048;24.650;2023-05-18T04:10:58;5.90;;;2.00;;
16460;SDS011;8341;42.048;24.650;2023-05-18T04:13:25;6.15;;;1.95;;
16460;SDS011;8341;42.048;24.650;2023-05-18T04:15:53;6.57;;;2.70;;
16460;SDS011;8341;42.048;24.650;2023-05-18T04:18:21;7.75;;;3.10;;
16460;SDS011;8341;42.048;24.650;2023-05-18T04:20:48;6.50;;;3.58;;
16460;SDS011;8341;42.048;24.650;2023-05-18T04:23:15;3.67;;;2.53;;
16460;SDS011;8341;42.048;24.650;2023-05-18T04:25:42;4.95;;;2.65;;
16460;SDS011;8341;42.048;24.650;2023-05-18T04:28:08;11.57;;;3.13;;
16460;SDS011;8341;42.048;24.650;2023-05-18T04:30:35;6.45;;;2.63;;
16460;SDS011;8341;42.048;24.650;2023-05-18T04:33:04;9.60;;;5.32;;
16460;SDS011;8341;42.048;24.650;2023-05-18T04:35:31;14.07;;;9.02;;
16460;SDS011;8341;42.048;24.650;2023-05-18T04:37:58;19.55;;;15.02;;
16460;SDS011;8341;42.048;24.650;2023-05-18T04:40:25;51.63;;;36.47;;
16460;SDS011;8341;42.048;24.650;2023-05-18T04:42:52;33.53;;;24.33;;
16460;SDS011;8341;42.048;24.650;2023-05-18T04:45:19;23.00;;;14.25;;
16460;SDS011;8341;42.048;24.650;2023-05-18T04:47:47;15.25;;;10.45;;
16460;SDS011;8341;42.048;24.650;2023-05-18T04:50:18;13.57;;;10.73;;
16460;SDS011;8341;42.048;24.650;2023-05-18T04:52:50;6.97;;;5.50;;
16460;SDS011;8341;42.048;24.650;2023-05-18T04:55:19;16.77;;;12.45;;
16460;SDS011;8341;42.048;24.650;2023-05-18T04:57:50;15.73;;;12.13;;
16460;SDS011;8341;42.048;24.650;2023-05-18T05:00:18;11.40;;;8.43;;
16460;SDS011;8341;42.048;24.650;2023-05-18T05:02:45;17.52;;;10.65;;
16460;SDS011;8341;42.048;24.650;2023-05-18T05:05:12;11.82;;;6.60;;
16460;SDS011;8341;42.048;24.650;2023-05-18T05:07:40;4.57;;;3.25;;
16460;SDS011;8341;42.048;24.650;2023-05-18T05:10:07;10.75;;;8.07;;
16460;SDS011;8341;42.048;24.650;2023-05-18T05:12:35;6.60;;;3.75;;
16460;SDS011;8341;42.048;24.650;2023-05-18T05:15:02;4.07;;;2.95;;
16460;SDS011;8341;42.048;24.650;2023-05-18T05:17:29;4.38;;;2.60;;
16460;SDS011;8341;42.048;24.650;2023-05-18T05:19:56;5.63;;;2.85;;
16460;SDS011;8341;42.048;24.650;2023-05-18T05:22:23;8.43;;;3.35;;
16460;SDS011;8341;42.048;24.650;2023-05-18T05:24:51;8.20;;;4.00;;
16460;SDS011;8341;42.048;24.650;2023-05-18T05:27:18;4.90;;;4.15;;
16460;SDS011;8341;42.048;24.650;2023-05-18T05:29:45;9.88;;;5.45;;
16460;SDS011;8341;42.048;24.650;2023-05-18T05:32:12;12.73;;;9.18;;
16460;SDS011;8341;42.048;24.650;2023-05-18T05:34:39;18.08;;;10.52;;
16460;SDS011;8341;42.048;24.650;2023-05-18T05:37:07;18.40;;;10.90;;
16460;SDS011;8341;42.048;24.650;2023-05-18T05:39:34;17.75;;;11.55;;
16460;SDS011;8341;42.048;24.650;2023-05-18T05:42:02;13.00;;;8.50;;
16460;SDS011;8341;42.048;24.650;2023-05-18T05:44:29;11.20;;;6.93;;
16460;SDS011;8341;42.048;24.650;2023-05-18T05:46:56;10.25;;;6.40;;
16460;SDS011;8341;42.048;24.650;2023-05-18T05:49:23;10.32;;;6.43;;
16460;SDS011;8341;42.048;24.650;2023-05-18T05:51:50;11.45;;;7.38;;
16460;SDS011;8341;42.048;24.650;2023-05-18T05:54:17;9.38;;;6.93;;
16460;SDS011;8341;42.048;24.650;2023-05-18T05:56:44;12.65;;;7.63;;
16460;SDS011;8341;42.048;24.650;2023-05-18T05:59:12;15.20;;;8.07;;
16460;SDS011;8341;42.048;24.650;2023-05-18T06:01:39;12.80;;;8.73;;
16460;SDS011;8341;42.048;24.650;2023-05-18T06:04:06;16.08;;;9.30;;
16460;SDS011;8341;42.048;24.650;2023-05-18T06:06:35;15.65;;;10.82;;
16460;SDS011;8341;42.048;24.650;2023-05-18T06:09:02;19.13;;;10.60;;
16460;SDS011;8341;42.048;24.650;2023-05-18T06:11:30;16.05;;;10.90;;
16460;SDS011;8341;42.048;24.650;2023-05-18T06:13:56;14.38;;;9.82;;
16460;SDS011;8341;42.048;24.650;2023-05-18T06:16:25;14.38;;;11.15;;
16460;SDS011;8341;42.048;24.650;2023-05-18T06:18:52;18.40;;;13.35;;
16460;SDS011;8341;42.048;24.650;2023-05-18T06:21:19;19.30;;;14.02;;
16460;SDS011;8341;42.048;24.650;2023-05-18T06:23:45;22.90;;;13.60;;
16460;SDS011;8341;42.048;24.650;2023-05-18T06:26:12;19.33;;;13.68;;
16460;SDS011;8341;42.048;24.650;2023-05-18T06:28:39;16.75;;;11.57;;
16460;SDS011;8341;42.048;24.650;2023-05-18T06:31:06;10.45;;;8.35;;
16460;SDS011;8341;42.048;24.650;2023-05-18T06:33:34;10.32;;;7.32;;
16460;SDS011;8341;42.048;24.650;2023-05-18T06:36:01;10.30;;;7.53;;
16460;SDS011;8341;42.048;24.650;2023-05-18T06:38:28;11.77;;;7.32;;
16460;SDS011;8341;42.048;24.650;2023-05-18T06:40:54;5.65;;;4.75;;
16460;SDS011;8341;42.048;24.650;2023-05-18T06:43:21;8.00;;;5.57;;
16460;SDS011;8341;42.048;24.650;2023-05-18T06:45:49;195.98;;;14.98;;
16460;SDS011;8341;42.048;24.650;2023-05-18T06:48:16;13.52;;;8.93;;
16460;SDS011;8341;42.048;24.650;2023-05-18T06:50:44;13.52;;;8.93;;
16460;SDS011;8341;42.048;24.650;2023-05-18T06:53:11;55.50;;;10.00;;
16460;SDS011;8341;42.048;24.650;2023-05-18T06:55:38;13.10;;;8.65;;
16460;SDS011;8341;42.048;24.650;2023-05-18T06:58:05;7.43;;;5.93;;
16460;SDS011;8341;42.048;24.650;2023-05-18T07:00:32;10.73;;;6.85;;
16460;SDS011;8341;42.048;24.650;2023-05-18T07:02:59;7.00;;;5.97;;
16460;SDS011;8341;42.048;24.650;2023-05-18T07:05:26;7.40;;;5.68;;
16460;SDS011;8341;42.048;24.650;2023-05-18T07:07:55;15.18;;;5.72;;
16460;SDS011;8341;42.048;24.650;2023-05-18T07:10:22;6.45;;;5.85;;
16460;SDS011;8341;42.048;24.650;2023-05-18T07:12:49;6.30;;;5.70;;
16460;SDS011;8341;42.048;24.650;2023-05-18T07:15:16;6.72;;;5.95;;
16460;SDS011;8341;42.048;24.650;2023-05-18T07:17:43;5.78;;;4.90;;
16460;SDS011;8341;42.048;24.650;2023-05-18T07:20:10;4.78;;;4.20;;
16460;SDS011;8341;42.048;24.650;2023-05-18T07:22:37;4.20;;;3.42;;
16460;SDS011;8341;42.048;24.650;2023-05-18T07:25:06;4.03;;;3.53;;
16460;SDS011;8341;42.048;24.650;2023-05-18T07:27:34;4.25;;;3.40;;
16460;SDS011;8341;42.048;24.650;2023-05-18T07:30:01;5.28;;;3.50;;
16460;SDS011;8341;42.048;24.650;2023-05-18T07:32:27;3.58;;;3.10;;
16460;SDS011;8341;42.048;24.650;2023-05-18T07:34:54;4.30;;;3.90;;
16460;SDS011;8341;42.048;24.650;2023-05-18T07:37:21;3.65;;;3.30;;
16460;SDS011;8341;42.048;24.650;2023-05-18T07:39:48;6.13;;;3.72;;
16460;SDS011;8341;42.048;24.650;2023-05-18T07:42:16;5.63;;;4.00;;
16460;SDS011;8341;42.048;24.650;2023-05-18T07:44:43;5.75;;;4.68;;
16460;SDS011;8341;42.048;24.650;2023-05-18T07:47:10;6.55;;;5.35;;
16460;SDS011;8341;42.048;24.650;2023-05-18T07:49:36;8.15;;;4.78;;
16460;SDS011;8341;42.048;24.650;2023-05-18T07:52:05;10.27;;;4.97;;
16460;SDS011;8341;42.048;24.650;2023-05-18T07:54:32;6.10;;;4.68;;
16460;SDS011;8341;42.048;24.650;2023-05-18T07:56:59;4.20;;;3.80;;
16460;SDS011;8341;42.048;24.650;2023-05-18T07:59:27;4.93;;;4.53;;
16460;SDS011;8341;42.048;24.650;2023-05-18T08:01:54;6.68;;;4.47;;
16460;SDS011;8341;42.048;24.650;2023-05-18T08:04:23;7.55;;;4.50;;
16460;SDS011;8341;42.048;24.650;2023-05-18T08:06:49;9.35;;;4.90;;
16460;SDS011;8341;42.048;24.650;2023-05-18T08:09:18;6.53;;;5.28;;
16460;SDS011;8341;42.048;24.650;2023-05-18T12:10:14;2.30;;;2.10;;
16460;SDS011;8341;42.048;24.650;2023-05-18T12:12:41;4.55;;;2.60;;
16460;SDS011;8341;42.048;24.650;2023-05-18T12:15:09;5.55;;;2.00;;
16460;SDS011;8341;42.048;24.650;2023-05-18T12:17:38;3.65;;;2.72;;
16460;SDS011;8341;42.048;24.650;2023-05-18T12:20:06;11.63;;;6.38;;
16460;SDS011;8341;42.048;24.650;2023-05-18T12:22:35;5.35;;;3.40;;
16460;SDS011;8341;42.048;24.650;2023-05-18T12:25:02;4.72;;;3.60;;
16460;SDS011;8341;42.048;24.650;2023-05-18T12:27:30;5.47;;;3.03;;
16460;SDS011;8341;42.048;24.650;2023-05-18T12:30:03;3.65;;;2.20;;
16460;SDS011;8341;42.048;24.650;2023-05-18T12:32:30;2.85;;;2.50;;
16460;SDS011;8341;42.048;24.650;2023-05-18T12:34:57;2.97;;;2.40;;
16460;SDS011;8341;42.048;24.650;2023-05-18T12:37:25;2.55;;;2.22;;
16460;SDS011;8341;42.048;24.650;2023-05-18T12:39:51;5.10;;;2.88;;
16460;SDS011;8341;42.048;24.650;2023-05-18T12:42:18;4.68;;;3.10;;
16460;SDS011;8341;42.048;24.650;2023-05-18T12:44:48;5.60;;;3.38;;
16460;SDS011;8341;42.048;24.650;2023-05-18T12:47:15;4.97;;;3.03;;
16460;SDS011;8341;42.048;24.650;2023-05-18T12:49:46;8.55;;;3.90;;
16460;SDS011;8341;42.048;24.650;2023-05-18T12:52:15;8.20;;;5.07;;
16460;SDS011;8341;42.048;24.650;2023-05-18T12:54:48;6.20;;;4.95;;
16460;SDS011;8341;42.048;24.650;2023-05-18T12:57:19;7.53;;;5.93;;
16460;SDS011;8341;42.048;24.650;2023-05-18T12:59:51;10.45;;;5.32;;
16460;SDS011;8341;42.048;24.650;2023-05-18T13:02:26;8.93;;;5.78;;
16460;SDS011;8341;42.048;24.650;2023-05-18T13:05:04;7.00;;;5.25;;
16460;SDS011;8341;42.048;24.650;2023-05-18T13:07:36;9.00;;;6.10;;
16460;SDS011;8341;42.048;24.650;2023-05-18T13:10:04;8.45;;;5.65;;
16460;SDS011;8341;42.048;24.650;2023-05-18T13:12:38;8.75;;;5.75;;
16460;SDS011;8341;42.048;24.650;2023-05-18T13:15:12;7.50;;;6.10;;
16460;SDS011;8341;42.048;24.650;2023-05-18T13:20:30;9.85;;;7.88;;
16460;SDS011;8341;42.048;24.650;2023-05-18T13:22:58;10.35;;;8.02;;
16460;SDS011;8341;42.048;24.650;2023-05-18T13:25:28;11.80;;;7.45;;
16460;SDS011;8341;42.048;24.650;2023-05-18T13:27:55;8.15;;;6.75;;
16460;SDS011;8341;42.048;24.650;2023-05-18T13:30:23;9.18;;;7.72;;
16460;SDS011;8341;42.048;24.650;2023-05-18T13:32:50;9.73;;;7.25;;
16460;SDS011;8341;42.048;24.650;2023-05-18T13:35:17;11.90;;;7.53;;
16460;SDS011;8341;42.048;24.650;2023-05-18T13:37:44;9.60;;;6.72;;
16460;SDS011;8341;42.048;24.650;2023-05-18T13:40:12;7.78;;;6.63;;
16460;SDS011;8341;42.048;24.650;2023-05-18T13:42:40;5.82;;;5.20;;
16460;SDS011;8341;42.048;24.650;2023-05-18T13:45:07;7.93;;;5.55;;
16460;SDS011;8341;42.048;24.650;2023-05-18T13:47:36;10.20;;;5.97;;
16460;SDS011;8341;42.048;24.650;2023-05-18T13:50:04;6.20;;;4.45;;
16460;SDS011;8341;42.048;24.650;2023-05-18T13:52:31;7.00;;;5.10;;
16460;SDS011;8341;42.048;24.650;2023-05-18T13:54:58;7.78;;;6.03;;
16460;SDS011;8341;42.048;24.650;2023-05-18T13:57:25;12.88;;;9.10;;
16460;SDS011;8341;42.048;24.650;2023-05-18T13:59:52;9.88;;;6.38;;
16460;SDS011;8341;42.048;24.650;2023-05-18T14:02:19;7.68;;;5.32;;
16460;SDS011;8341;42.048;24.650;2023-05-18T14:04:47;6.95;;;4.97;;
16460;SDS011;8341;42.048;24.650;2023-05-18T14:07:13;7.07;;;4.82;;
16460;SDS011;8341;42.048;24.650;2023-05-18T14:09:40;10.50;;;6.75;;
16460;SDS011;8341;42.048;24.650;2023-05-18T14:12:07;8.68;;;6.72;;
16460;SDS011;8341;42.048;24.650;2023-05-18T14:14:35;5.53;;;4.35;;
16460;SDS011;8341;42.048;24.650;2023-05-18T14:17:02;5.65;;;3.90;;
16460;SDS011;8341;42.048;24.650;2023-05-18T14:19:28;4.68;;;3.90;;
16460;SDS011;8341;42.048;24.650;2023-05-18T14:25:36;7.63;;;4.25;;
16460;SDS011;8341;42.048;24.650;2023-05-18T14:28:02;7.68;;;6.10;;
16460;SDS011;8341;42.048;24.650;2023-05-18T14:30:29;7.22;;;4.30;;
16460;SDS011;8341;42.048;24.650;2023-05-18T14:32:56;6.10;;;4.55;;
16460;SDS011;8341;42.048;24.650;2023-05-18T14:35:23;6.57;;;4.97;;
16460;SDS011;8341;42.048;24.650;2023-05-18T14:37:50;4.45;;;4.00;;
16460;SDS011;8341;42.048;24.650;2023-05-18T14:40:16;6.93;;;4.40;;
16460;SDS011;8341;42.048;24.650;2023-05-18T14:42:44;11.85;;;5.25;;
16460;SDS011;8341;42.048;24.650;2023-05-18T14:45:11;7.10;;;4.20;;
16460;SDS011;8341;42.048;24.650;2023-05-18T14:47:38;7.85;;;5.05;;
16460;SDS011;8341;42.048;24.650;2023-05-18T14:50:05;6.03;;;4.47;;
16460;SDS011;8341;42.048;24.650;2023-05-18T14:52:32;5.35;;;4.60;;
16460;SDS011;8341;42.048;24.650;2023-05-18T14:54:59;7.65;;;5.55;;
16460;SDS011;8341;42.048;24.650;2023-05-18T14:57:26;8.02;;;5.40;;
16460;SDS011;8341;42.048;24.650;2023-05-18T14:59:54;6.45;;;5.28;;
16460;SDS011;8341;42.048;24.650;2023-05-18T15:02:22;7.90;;;5.15;;
16460;SDS011;8341;42.048;24.650;2023-05-18T15:04:49;8.73;;;5.60;;
16460;SDS011;8341;42.048;24.650;2023-05-18T15:07:15;5.28;;;4.63;;
16460;SDS011;8341;42.048;24.650;2023-05-18T15:09:42;5.95;;;4.18;;
16460;SDS011;8341;42.048;24.650;2023-05-18T15:12:09;6.03;;;5.07;;
16460;SDS011;8341;42.048;24.650;2023-05-18T15:14:36;7.65;;;5.22;;
16460;SDS011;8341;42.048;24.650;2023-05-18T15:17:04;5.32;;;4.82;;
16460;SDS011;8341;42.048;24.650;2023-05-18T15:19:32;6.57;;;4.95;;
16460;SDS011;8341;42.048;24.650;2023-05-18T15:21:59;7.22;;;5.47;;
16460;SDS011;8341;42.048;24.650;2023-05-18T15:24:26;8.20;;;5.65;;
16460;SDS011;8341;42.048;24.650;2023-05-18T15:26:52;6.93;;;4.97;;
16460;SDS011;8341;42.048;24.650;2023-05-18T15:29:19;8.27;;;5.43;;
16460;SDS011;8341;42.048;24.650;2023-05-18T15:31:46;6.68;;;5.50;;
16460;SDS011;8341;42.048;24.650;2023-05-18T15:34:16;7.88;;;6.30;;
16460;SDS011;8341;42.048;24.650;2023-05-18T15:36:43;7.95;;;6.20;;
16460;SDS011;8341;42.048;24.650;2023-05-18T15:39:10;6.80;;;5.82;;
16460;SDS011;8341;42.048;24.650;2023-05-18T15:41:36;8.95;;;6.55;;
16460;SDS011;8341;42.048;24.650;2023-05-18T15:44:04;8.50;;;5.93;;
16460;SDS011;8341;42.048;24.650;2023-05-18T15:46:31;7.03;;;6.35;;
16460;SDS011;8341;42.048;24.650;2023-05-18T15:48:59;9.70;;;6.90;;
16460;SDS011;8341;42.048;24.650;2023-05-18T15:51:28;15.82;;;12.40;;
16460;SDS011;8341;42.048;24.650;2023-05-18T15:53:55;19.40;;;13.73;;
16460;SDS011;8341;42.048;24.650;2023-05-18T15:56:21;11.30;;;8.07;;
16460;SDS011;8341;42.048;24.650;2023-05-18T15:58:48;11.13;;;8.38;;
16460;SDS011;8341;42.048;24.650;2023-05-18T16:01:15;11.80;;;9.63;;
16460;SDS011;8341;42.048;24.650;2023-05-18T16:03:42;23.83;;;18.67;;
16460;SDS011;8341;42.048;24.650;2023-05-18T16:06:09;19.52;;;15.15;;
16460;SDS011;8341;42.048;24.650;2023-05-18T16:08:37;21.95;;;17.70;;
16460;SDS011;8341;42.048;24.650;2023-05-18T16:11:04;17.25;;;13.50;;
16460;SDS011;8341;42.048;24.650;2023-05-18T16:13:31;22.60;;;16.98;;
16460;SDS011;8341;42.048;24.650;2023-05-18T16:15:58;15.75;;;11.00;;
16460;SDS011;8341;42.048;24.650;2023-05-18T16:18:25;14.32;;;12.00;;
16460;SDS011;8341;42.048;24.650;2023-05-18T16:20:51;12.23;;;7.88;;
16460;SDS011;8341;42.048;24.650;2023-05-18T16:23:18;7.07;;;6.20;;
16460;SDS011;8341;42.048;24.650;2023-05-18T16:25:46;8.10;;;5.60;;
16460;SDS011;8341;42.048;24.650;2023-05-18T16:28:13;11.23;;;8.52;;
16460;SDS011;8341;42.048;24.650;2023-05-18T16:30:40;10.25;;;6.97;;
16460;SDS011;8341;42.048;24.650;2023-05-18T16:33:07;10.38;;;8.85;;
16460;SDS011;8341;42.048;24.650;2023-05-18T16:35:33;16.92;;;13.73;;
16460;SDS011;8341;42.048;24.650;2023-05-18T16:38:00;20.65;;;14.60;;
16460;SDS011;8341;42.048;24.650;2023-05-18T16:40:27;18.90;;;13.88;;
16460;SDS011;8341;42.048;24.650;2023-05-18T16:42:55;17.80;;;14.18;;
16460;SDS011;8341;42.048;24.650;2023-05-18T16:45:22;21.38;;;15.70;;
16460;SDS011;8341;42.048;24.650;2023-05-18T16:47:49;18.67;;;14.10;;
16460;SDS011;8341;42.048;24.650;2023-05-18T16:50:15;24.13;;;17.92;;
16460;SDS011;8341;42.048;24.650;2023-05-18T16:52:42;20.45;;;14.98;;
16460;SDS011;8341;42.048;24.650;2023-05-18T16:55:09;26.65;;;20.67;;
16460;SDS011;8341;42.048;24.650;2023-05-18T16:57:36;18.65;;;11.77;;
16460;SDS011;8341;42.048;24.650;2023-05-18T17:00:05;17.52;;;14.40;;
16460;SDS011;8341;42.048;24.650;2023-05-18T17:02:36;20.73;;;15.15;;
16460;SDS011;8341;42.048;24.650;2023-05-18T17:05:04;21.05;;;16.50;;
16460;SDS011;8341;42.048;24.650;2023-05-18T17:07:32;15.93;;;11.40;;
16460;SDS011;8341;42.048;24.650;2023-05-18T17:09:59;18.33;;;13.55;;
16460;SDS011;8341;42.048;24.650;2023-05-18T17:12:26;14.40;;;12.32;;
16460;SDS011;8341;42.048;24.650;2023-05-18T17:14:53;12.70;;;9.85;;
16460;SDS011;8341;42.048;24.650;2023-05-18T17:17:21;9.88;;;7.55;;
16460;SDS011;8341;42.048;24.650;2023-05-18T17:19:48;16.23;;;12.15;;
16460;SDS011;8341;42.048;24.650;2023-05-18T17:22:15;17.98;;;12.70;;
16460;SDS011;8341;42.048;24.650;2023-05-18T17:24:41;13.93;;;11.93;;
16460;SDS011;8341;42.048;24.650;2023-05-18T17:27:08;12.27;;;9.38;;
16460;SDS011;8341;42.048;24.650;2023-05-18T17:29:35;14.32;;;10.15;;
16460;SDS011;8341;42.048;24.650;2023-05-18T17:32:02;8.63;;;7.07;;
16460;SDS011;8341;42.048;24.650;2023-05-18T17:34:31;11.48;;;9.60;;
16460;SDS011;8341;42.048;24.650;2023-05-18T17:36:57;15.05;;;10.23;;
16460;SDS011;8341;42.048;24.650;2023-05-18T17:39:24;9.82;;;8.00;;
16460;SDS011;8341;42.048;24.650;2023-05-18T17:41:51;16.10;;;10.70;;
16460;SDS011;8341;42.048;24.650;2023-05-18T17:44:18;19.25;;;12.65;;
16460;SDS011;8341;42.048;24.650;2023-05-18T17:46:45;20.85;;;11.57;;
16460;SDS011;8341;42.048;24.650;2023-05-18T17:49:12;19.65;;;11.88;;
16460;SDS011;8341;42.048;24.650;2023-05-18T17:51:40;14.00;;;10.20;;
16460;SDS011;8341;42.048;24.650;2023-05-18T17:54:07;13.05;;;10.15;;
16460;SDS011;8341;42.048;24.650;2023-05-18T17:56:34;8.52;;;7.47;;
16460;SDS011;8341;42.048;24.650;2023-05-18T17:59:01;5.30;;;4.80;;
16460;SDS011;8341;42.048;24.650;2023-05-18T18:01:29;8.32;;;6.60;;
16460;SDS011;8341;42.048;24.650;2023-05-18T18:03:56;5.68;;;4.97;;
16460;SDS011;8341;42.048;24.650;2023-05-18T18:06:23;9.27;;;6.03;;
16460;SDS011;8341;42.048;24.650;2023-05-18T18:08:52;6.35;;;4.60;;
16460;SDS011;8341;42.048;24.650;2023-05-18T18:11:21;7.13;;;4.82;;
16460;SDS011;8341;42.048;24.650;2023-05-18T18:13:48;5.63;;;5.05;;
16460;SDS011;8341;42.048;24.650;2023-05-18T18:16:15;5.53;;;4.25;;
16460;SDS011;8341;42.048;24.650;2023-05-18T18:18:42;3.33;;;3.00;;
16460;SDS011;8341;42.048;24.650;2023-05-18T18:21:09;7.45;;;4.82;;
16460;SDS011;8341;42.048;24.650;2023-05-18T18:23:37;5.32;;;4.78;;
16460;SDS011;8341;42.048;24.650;2023-05-18T18:26:06;5.10;;;4.40;;
16460;SDS011;8341;42.048;24.650;2023-05-18T18:28:33;6.63;;;4.55;;
16460;SDS011;8341;42.048;24.650;2023-05-18T18:31:00;5.97;;;4.40;;
16460;SDS011;8341;42.048;24.650;2023-05-18T18:33:27;5.25;;;3.03;;
16460;SDS011;8341;42.048;24.650;2023-05-18T18:35:54;3.75;;;3.00;;
16460;SDS011;8341;42.048;24.650;2023-05-18T18:38:22;4.10;;;3.22;;
16460;SDS011;8341;42.048;24.650;2023-05-18T18:40:50;4.82;;;3.13;;
16460;SDS011;8341;42.048;24.650;2023-05-18T18:43:19;4.13;;;3.38;;
16460;SDS011;8341;42.048;24.650;2023-05-18T18:45:46;3.35;;;2.95;;
16460;SDS011;8341;42.048;24.650;2023-05-18T18:48:12;3.25;;;2.90;;
16460;SDS011;8341;42.048;24.650;2023-05-18T18:50:39;3.47;;;3.10;;
16460;SDS011;8341;42.048;24.650;2023-05-18T18:53:06;3.50;;;3.20;;